Time;durP1;ratioP1;P1;durP2;ratioP2;P2;SDS_P1;SDS_P2;PMS_P1;PMS_P2;Temp;Humidity;BMP_temperature;BMP_pressure;BME280_temperature;BME280_humidity;BME280_pressure;Samples;Min_cycle;Max_cycle;Signal;HPM_P1;HPM_P2
2021/11/28 00:01:52;;;;;;;5.10;3.35;;;;;;;;;;5051452;28;20198;-65
2021/11/28 00:04:23;;;;;;;5.00;2.60;;;;;;;;;;5051309;28;20261;-64
2021/11/28 00:07:00;;;;;;;5.97;2.53;;;;;;;;;;5051398;28;20710;-64
2021/11/28 00:09:44;;;;;;;5.03;2.70;;;;;;;;;;5050734;28;20206;-65
2021/11/28 00:12:28;;;;;;;5.10;2.83;;;;;;;;;;5051063;28;20183;-64
2021/11/28 00:14:57;;;;;;;4.50;2.33;;;;;;;;;;5050920;28;20296;-65
2021/11/28 00:17:29;;;;;;;3.70;2.05;;;;;;;;;;5050788;28;20201;-64
2021/11/28 00:20:02;;;;;;;3.80;2.35;;;;;;;;;;5032865;28;20754;-65
2021/11/28 00:22:34;;;;;;;5.88;2.72;;;;;;;;;;5035892;28;20278;-65
2021/11/28 00:25:09;;;;;;;3.33;2.40;;;;;;;;;;5052853;28;20187;-64
2021/11/28 00:27:39;;;;;;;4.10;2.58;;;;;;;;;;5052205;28;20549;-65
2021/11/28 00:30:13;;;;;;;3.80;2.13;;;;;;;;;;5052749;28;20197;-64
2021/11/28 00:32:45;;;;;;;3.50;1.75;;;;;;;;;;5051796;28;20186;-65
2021/11/28 00:35:14;;;;;;;4.18;1.92;;;;;;;;;;5052745;28;20195;-65
2021/11/28 00:37:41;;;;;;;2.83;1.88;;;;;;;;;;5052001;28;20229;-64
2021/11/28 00:40:09;;;;;;;2.45;1.38;;;;;;;;;;5052418;28;20264;-65
2021/11/28 00:42:40;;;;;;;5.80;2.22;;;;;;;;;;5052301;28;20191;-65
2021/11/28 00:45:10;;;;;;;3.15;2.05;;;;;;;;;;5051583;28;20179;-65
2021/11/28 00:47:43;;;;;;;4.25;2.28;;;;;;;;;;5051600;28;20197;-64
2021/11/28 00:50:25;;;;;;;3.72;2.97;;;;;;;;;;5051986;28;20182;-64
2021/11/28 00:52:55;;;;;;;4.47;2.50;;;;;;;;;;5051712;28;20186;-64
2021/11/28 00:55:26;;;;;;;3.83;2.20;;;;;;;;;;5052217;28;20206;-65
2021/11/28 00:57:56;;;;;;;4.00;2.25;;;;;;;;;;5052179;28;20209;-64
2021/11/28 01:00:23;;;;;;;3.33;2.08;;;;;;;;;;5052390;28;20190;-64
2021/11/28 01:02:53;;;;;;;3.05;1.88;;;;;;;;;;5052281;28;20657;-64
2021/11/28 01:05:20;;;;;;;3.95;2.28;;;;;;;;;;5052377;28;20198;-64
2021/11/28 01:07:50;;;;;;;4.03;2.20;;;;;;;;;;5051947;28;20184;-64
2021/11/28 01:10:19;;;;;;;3.00;2.05;;;;;;;;;;5052259;28;20226;-64
2021/11/28 01:12:47;;;;;;;2.67;1.70;;;;;;;;;;5051705;28;20190;-64
2021/11/28 01:15:15;;;;;;;3.10;1.40;;;;;;;;;;5052083;28;20593;-65
2021/11/28 01:17:43;;;;;;;2.03;1.50;;;;;;;;;;5051981;28;20554;-64
2021/11/28 01:20:20;;;;;;;2.67;1.33;;;;;;;;;;5052228;28;20191;-65
2021/11/28 01:22:48;;;;;;;2.00;1.45;;;;;;;;;;5051537;28;20191;-65
2021/11/28 01:25:16;;;;;;;2.25;1.70;;;;;;;;;;5052145;28;20221;-64
2021/11/28 01:27:45;;;;;;;1.90;1.10;;;;;;;;;;5051748;28;20187;-66
2021/11/28 01:30:17;;;;;;;2.58;1.65;;;;;;;;;;5051957;28;20541;-64
2021/11/28 01:32:47;;;;;;;2.40;1.50;;;;;;;;;;5051687;28;20214;-67
2021/11/28 01:35:18;;;;;;;3.22;1.90;;;;;;;;;;5032192;28;20194;-64
2021/11/28 01:37:46;;;;;;;2.95;1.60;;;;;;;;;;5037678;28;20586;-65
2021/11/28 01:40:18;;;;;;;2.88;1.50;;;;;;;;;;5051737;28;20552;-64
2021/11/28 01:42:49;;;;;;;2.08;1.17;;;;;;;;;;5052123;28;20548;-64
2021/11/28 01:45:18;;;;;;;1.83;1.23;;;;;;;;;;5054996;28;20183;-65
2021/11/28 01:47:53;;;;;;;2.75;2.03;;;;;;;;;;5055910;28;20203;-65
2021/11/28 01:50:31;;;;;;;1.90;1.30;;;;;;;;;;5055331;28;20620;-65
2021/11/28 01:52:59;;;;;;;2.90;1.52;;;;;;;;;;5054804;28;20183;-65
2021/11/28 01:55:30;;;;;;;1.95;1.13;;;;;;;;;;5054831;28;20203;-65
2021/11/28 01:57:59;;;;;;;2.63;1.35;;;;;;;;;;5054960;28;20187;-65
2021/11/28 02:00:32;;;;;;;2.75;1.70;;;;;;;;;;5055300;28;20620;-65
2021/11/28 02:03:00;;;;;;;2.08;1.67;;;;;;;;;;5055144;28;20225;-65
2021/11/28 02:05:29;;;;;;;2.35;1.92;;;;;;;;;;5055266;28;20203;-65
2021/11/28 02:07:58;;;;;;;2.88;1.85;;;;;;;;;;5055317;28;20583;-64
2021/11/28 02:10:26;;;;;;;3.15;1.50;;;;;;;;;;5055109;28;20282;-66
2021/11/28 02:12:53;;;;;;;3.25;1.55;;;;;;;;;;5055326;28;20248;-64
2021/11/28 02:15:22;;;;;;;2.63;1.70;;;;;;;;;;5055041;28;20231;-65
2021/11/28 02:17:51;;;;;;;3.65;1.83;;;;;;;;;;5054933;28;20199;-64
2021/11/28 02:20:20;;;;;;;2.65;1.77;;;;;;;;;;5054876;28;20229;-65
2021/11/28 02:22:48;;;;;;;2.60;1.63;;;;;;;;;;5055140;28;20226;-65
2021/11/28 02:25:16;;;;;;;2.60;1.80;;;;;;;;;;5055166;28;20725;-64
2021/11/28 02:27:43;;;;;;;5.15;2.70;;;;;;;;;;5054768;28;20191;-65
2021/11/28 02:30:11;;;;;;;4.75;2.83;;;;;;;;;;5054798;28;20191;-65
2021/11/28 02:32:41;;;;;;;3.28;2.40;;;;;;;;;;5054803;28;20222;-65
2021/11/28 02:35:18;;;;;;;4.15;2.20;;;;;;;;;;5056831;28;20230;-65
2021/11/28 02:37:46;;;;;;;4.25;2.72;;;;;;;;;;5056917;28;20659;-64
2021/11/28 02:40:16;;;;;;;2.80;2.20;;;;;;;;;;5054630;28;20219;-64
2021/11/28 02:42:44;;;;;;;3.53;2.22;;;;;;;;;;5054984;28;20190;-65
2021/11/28 02:45:12;;;;;;;3.47;2.22;;;;;;;;;;5054809;28;20227;-65
2021/11/28 02:47:42;;;;;;;4.20;2.10;;;;;;;;;;5054517;28;20198;-64
2021/11/28 02:50:10;;;;;;;8.90;2.80;;;;;;;;;;5054382;28;20230;-65
2021/11/28 02:52:39;;;;;;;3.45;2.35;;;;;;;;;;5054388;28;20277;-64
2021/11/28 02:55:07;;;;;;;3.72;2.45;;;;;;;;;;5054507;28;20203;-65
2021/11/28 02:57:36;;;;;;;3.17;2.15;;;;;;;;;;5054412;28;20244;-64
2021/11/28 03:00:07;;;;;;;3.28;2.42;;;;;;;;;;5054290;28;20246;-64
2021/11/28 03:02:37;;;;;;;3.95;2.45;;;;;;;;;;5054243;28;20191;-65
2021/11/28 03:05:05;;;;;;;2.90;2.22;;;;;;;;;;5054388;28;20190;-65
2021/11/28 03:07:33;;;;;;;2.85;1.92;;;;;;;;;;5054152;28;20650;-65
2021/11/28 03:10:29;;;;;;;3.80;2.47;;;;;;;;;;5053993;28;20266;-64
2021/11/28 03:12:58;;;;;;;4.38;2.30;;;;;;;;;;5053974;28;20195;-64
2021/11/28 03:15:28;;;;;;;3.53;1.90;;;;;;;;;;5053848;28;20732;-64
2021/11/28 03:17:55;;;;;;;3.28;2.35;;;;;;;;;;5054435;28;20611;-64
2021/11/28 03:20:22;;;;;;;4.05;2.30;;;;;;;;;;5053932;28;20218;-64
2021/11/28 03:22:59;;;;;;;2.97;2.20;;;;;;;;;;5053991;28;20195;-64
2021/11/28 03:25:31;;;;;;;4.53;2.45;;;;;;;;;;5054010;28;20272;-64
2021/11/28 03:28:00;;;;;;;3.00;2.20;;;;;;;;;;5054214;28;20202;-64
2021/11/28 03:30:29;;;;;;;3.03;2.40;;;;;;;;;;5054057;28;20253;-65
2021/11/28 03:32:57;;;;;;;3.00;2.13;;;;;;;;;;5054039;28;20187;-64
2021/11/28 03:35:24;;;;;;;4.90;2.42;;;;;;;;;;5053504;28;20195;-64
2021/11/28 03:37:52;;;;;;;2.83;1.90;;;;;;;;;;5053796;28;20195;-64
2021/11/28 03:40:21;;;;;;;2.95;2.00;;;;;;;;;;5053344;28;20697;-64
2021/11/28 03:42:49;;;;;;;2.63;2.20;;;;;;;;;;5053689;28;20199;-64
2021/11/28 03:45:19;;;;;;;2.90;2.00;;;;;;;;;;5053178;28;20201;-64
2021/11/28 03:47:47;;;;;;;6.53;2.10;;;;;;;;;;5053559;28;20603;-64
2021/11/28 03:50:16;;;;;;;4.60;2.70;;;;;;;;;;5053574;28;20194;-64
2021/11/28 03:52:44;;;;;;;5.90;2.58;;;;;;;;;;5053263;28;20226;-65
2021/11/28 03:55:15;;;;;;;5.03;2.85;;;;;;;;;;5053266;28;20194;-66
2021/11/28 03:57:43;;;;;;;3.55;2.10;;;;;;;;;;5053457;28;20296;-64
2021/11/28 04:00:14;;;;;;;3.38;2.22;;;;;;;;;;5052902;28;20222;-64
2021/11/28 04:02:42;;;;;;;4.43;1.98;;;;;;;;;;5053339;28;20586;-64
2021/11/28 04:05:10;;;;;;;5.78;1.55;;;;;;;;;;5053699;28;20592;-65
2021/11/28 04:07:38;;;;;;;4.40;1.75;;;;;;;;;;5053163;28;20202;-64
2021/11/28 04:10:06;;;;;;;3.30;1.75;;;;;;;;;;5053471;28;20222;-65
2021/11/28 04:12:33;;;;;;;5.07;2.05;;;;;;;;;;5052884;28;20240;-65
2021/11/28 04:15:07;;;;;;;2.65;1.60;;;;;;;;;;5053162;28;20233;-65
2021/11/28 04:17:34;;;;;;;3.78;1.83;;;;;;;;;;5053365;28;20277;-65
2021/11/28 04:20:04;;;;;;;3.28;1.80;;;;;;;;;;5053009;28;20231;-65
2021/11/28 04:22:31;;;;;;;3.60;1.83;;;;;;;;;;5052820;28;20244;-65
2021/11/28 04:24:58;;;;;;;3.78;1.95;;;;;;;;;;5053220;28;20574;-64
2021/11/28 04:27:30;;;;;;;3.97;2.20;;;;;;;;;;5053157;28;20218;-64
2021/11/28 04:29:58;;;;;;;4.65;1.90;;;;;;;;;;5053187;28;20264;-64
2021/11/28 04:32:25;;;;;;;2.42;1.73;;;;;;;;;;5052943;28;20249;-64
2021/11/28 04:34:55;;;;;;;2.80;1.80;;;;;;;;;;5052538;28;20677;-64
2021/11/28 04:37:24;;;;;;;7.72;2.05;;;;;;;;;;5052928;28;20194;-64
2021/11/28 04:39:58;;;;;;;2.63;1.70;;;;;;;;;;5052567;28;20226;-64
2021/11/28 04:42:25;;;;;;;2.30;1.40;;;;;;;;;;5052722;28;20637;-65
2021/11/28 04:44:58;;;;;;;5.13;1.65;;;;;;;;;;5052996;28;20716;-65
2021/11/28 04:47:26;;;;;;;2.90;2.15;;;;;;;;;;5053044;28;20281;-65
2021/11/28 04:49:53;;;;;;;3.75;2.78;;;;;;;;;;5052866;28;20230;-64
2021/11/28 04:52:28;;;;;;;4.55;1.83;;;;;;;;;;5052423;28;20195;-64
2021/11/28 04:54:57;;;;;;;4.85;1.90;;;;;;;;;;5052976;28;20256;-64
2021/11/28 04:57:27;;;;;;;2.90;2.08;;;;;;;;;;5052943;28;20248;-64
2021/11/28 04:59:57;;;;;;;7.15;2.20;;;;;;;;;;5052644;28;20589;-64
2021/11/28 05:02:26;;;;;;;4.05;2.13;;;;;;;;;;5052903;28;20633;-64
2021/11/28 05:04:56;;;;;;;3.00;1.65;;;;;;;;;;5052488;28;20260;-64
2021/11/28 05:07:27;;;;;;;2.83;1.45;;;;;;;;;;5052755;28;20194;-64
2021/11/28 05:09:58;;;;;;;3.85;1.95;;;;;;;;;;5052484;28;20709;-64
2021/11/28 05:12:33;;;;;;;1.90;1.00;;;;;;;;;;5052474;28;20194;-64
2021/11/28 05:15:00;;;;;;;2.10;1.30;;;;;;;;;;5052108;28;20249;-65
2021/11/28 05:17:29;;;;;;;5.50;2.10;;;;;;;;;;5052516;28;20222;-65
2021/11/28 05:19:57;;;;;;;2.63;1.50;;;;;;;;;;5055394;28;20603;-64
2021/11/28 05:22:25;;;;;;;6.57;2.70;;;;;;;;;;5056578;28;20202;-64
2021/11/28 05:24:54;;;;;;;2.60;1.75;;;;;;;;;;5056277;28;20195;-64
2021/11/28 05:27:21;;;;;;;3.10;1.40;;;;;;;;;;5056117;28;20211;-64
2021/11/28 05:29:49;;;;;;;2.53;1.50;;;;;;;;;;5056259;28;20194;-64
2021/11/28 05:32:16;;;;;;;3.45;1.70;;;;;;;;;;5056286;28;20222;-64
2021/11/28 05:34:46;;;;;;;2.45;1.27;;;;;;;;;;5056496;28;20630;-64
2021/11/28 05:37:20;;;;;;;5.10;1.13;;;;;;;;;;5056090;28;20195;-64
2021/11/28 05:39:48;;;;;;;1.60;0.93;;;;;;;;;;5056350;28;20225;-65
2021/11/28 05:42:17;;;;;;;2.17;1.08;;;;;;;;;;5056180;28;20661;-64
2021/11/28 05:44:46;;;;;;;2.35;0.90;;;;;;;;;;5055922;28;20230;-64
2021/11/28 05:47:13;;;;;;;1.50;0.90;;;;;;;;;;5055934;28;20187;-64
2021/11/28 05:49:45;;;;;;;2.42;1.25;;;;;;;;;;5056259;28;20199;-65
2021/11/28 05:52:13;;;;;;;3.90;1.20;;;;;;;;;;5055773;28;20191;-64
2021/11/28 05:54:43;;;;;;;3.55;2.15;;;;;;;;;;5056103;28;20553;-65
2021/11/28 05:57:10;;;;;;;4.05;2.03;;;;;;;;;;5055717;28;20234;-64
2021/11/28 05:59:39;;;;;;;4.55;1.80;;;;;;;;;;5055931;28;20246;-64
2021/11/28 06:02:06;;;;;;;2.42;1.02;;;;;;;;;;5055847;28;20256;-64
2021/11/28 06:04:34;;;;;;;4.88;1.25;;;;;;;;;;5055873;28;20198;-66
2021/11/28 06:07:01;;;;;;;2.80;0.98;;;;;;;;;;5055432;28;20226;-64
2021/11/28 06:09:28;;;;;;;2.58;0.82;;;;;;;;;;5055773;28;20606;-64
2021/11/28 06:11:56;;;;;;;1.67;0.80;;;;;;;;;;5055380;28;20191;-65
2021/11/28 06:14:23;;;;;;;2.17;0.98;;;;;;;;;;5055419;28;20222;-64
2021/11/28 06:16:52;;;;;;;2.92;1.40;;;;;;;;;;5055696;28;20238;-64
2021/11/28 06:19:21;;;;;;;3.40;1.38;;;;;;;;;;5055600;28;20666;-64
2021/11/28 06:21:49;;;;;;;2.10;1.38;;;;;;;;;;5055676;28;20592;-64
2021/11/28 06:24:19;;;;;;;3.05;1.80;;;;;;;;;;5055289;28;20229;-64
2021/11/28 06:26:48;;;;;;;2.28;1.20;;;;;;;;;;5055081;28;20193;-64
2021/11/28 06:29:18;;;;;;;2.28;1.80;;;;;;;;;;5055055;28;20193;-65
2021/11/28 06:31:45;;;;;;;2.45;1.50;;;;;;;;;;5054900;28;20240;-64
2021/11/28 06:34:15;;;;;;;3.28;2.60;;;;;;;;;;5055337;28;20187;-67
2021/11/28 06:36:45;;;;;;;5.75;5.25;;;;;;;;;;5055238;28;20711;-65
2021/11/28 06:39:13;;;;;;;123.90;60.38;;;;;;;;;;5054870;28;20218;-65
2021/11/28 06:41:40;;;;;;;32.83;18.50;;;;;;;;;;5054951;28;20218;-65
2021/11/28 06:44:08;;;;;;;41.63;22.88;;;;;;;;;;5054975;28;20230;-65
2021/11/28 06:46:37;;;;;;;226.38;104.03;;;;;;;;;;5054879;28;20194;-64
2021/11/28 06:49:07;;;;;;;162.40;94.00;;;;;;;;;;5054599;28;20195;-65
2021/11/28 06:51:37;;;;;;;129.85;115.75;;;;;;;;;;5055116;28;20198;-65
2021/11/28 06:54:04;;;;;;;36.50;32.42;;;;;;;;;;5054920;28;20557;-65
2021/11/28 06:56:31;;;;;;;16.30;13.35;;;;;;;;;;5054780;28;20217;-67
2021/11/28 06:59:00;;;;;;;9.50;6.88;;;;;;;;;;5054718;28;20217;-64
2021/11/28 07:01:27;;;;;;;6.95;4.47;;;;;;;;;;5054885;28;20256;-65
2021/11/28 07:03:56;;;;;;;6.25;4.53;;;;;;;;;;5054372;28;20280;-65
2021/11/28 07:06:24;;;;;;;3.80;2.90;;;;;;;;;;5054800;28;20252;-64
2021/11/28 07:08:54;;;;;;;3.22;2.58;;;;;;;;;;5054447;28;20195;-65
2021/11/28 07:11:24;;;;;;;5.65;3.33;;;;;;;;;;5054673;28;20660;-64
2021/11/28 07:13:51;;;;;;;8.05;4.60;;;;;;;;;;5054179;28;20231;-64
2021/11/28 07:16:19;;;;;;;6.50;4.50;;;;;;;;;;5054630;28;20658;-65
2021/11/28 07:18:46;;;;;;;9.35;6.90;;;;;;;;;;5054365;28;20197;-65
2021/11/28 07:21:14;;;;;;;6.97;5.22;;;;;;;;;;5054312;28;20223;-65
2021/11/28 07:23:42;;;;;;;6.57;3.70;;;;;;;;;;5054484;28;20234;-65
2021/11/28 07:26:11;;;;;;;6.10;4.05;;;;;;;;;;5054332;28;20252;-65
2021/11/28 07:28:41;;;;;;;14.00;8.48;;;;;;;;;;5054138;28;20230;-64
2021/11/28 07:31:08;;;;;;;6.68;5.22;;;;;;;;;;5054051;28;20308;-65
2021/11/28 07:33:36;;;;;;;4.70;3.35;;;;;;;;;;5054288;28;20284;-65
2021/11/28 07:36:06;;;;;;;10.57;2.67;;;;;;;;;;5054187;28;20191;-65
2021/11/28 07:38:39;;;;;;;4.35;2.58;;;;;;;;;;5054096;28;20222;-65
2021/11/28 07:41:08;;;;;;;10.43;4.18;;;;;;;;;;5053350;28;20215;-65
2021/11/28 07:43:37;;;;;;;6.35;4.10;;;;;;;;;;5053520;28;20598;-65
2021/11/28 07:46:05;;;;;;;7.03;4.78;;;;;;;;;;5050902;28;20194;-66
2021/11/28 07:48:34;;;;;;;5.28;4.05;;;;;;;;;;5052307;28;20217;-66
2021/11/28 07:51:01;;;;;;;5.07;3.88;;;;;;;;;;5052437;28;20195;-64
2021/11/28 07:53:32;;;;;;;5.38;4.88;;;;;;;;;;5052113;28;20202;-65
2021/11/28 07:55:59;;;;;;;4.30;3.35;;;;;;;;;;5052293;28;20244;-65
2021/11/28 07:58:27;;;;;;;6.72;4.55;;;;;;;;;;5052318;28;20560;-65
2021/11/28 08:00:58;;;;;;;3.60;3.00;;;;;;;;;;5051986;28;20222;-66
2021/11/28 08:03:25;;;;;;;3.40;2.13;;;;;;;;;;5050692;28;20195;-65
2021/11/28 08:05:58;;;;;;;6.00;2.55;;;;;;;;;;5051553;28;20203;-66
2021/11/28 08:08:27;;;;;;;2.75;2.10;;;;;;;;;;5051193;28;20226;-66
2021/11/28 08:10:55;;;;;;;3.95;3.47;;;;;;;;;;5051175;28;20195;-65
2021/11/28 08:13:22;;;;;;;4.43;3.00;;;;;;;;;;5051370;28;20215;-65
2021/11/28 08:15:52;;;;;;;6.47;5.47;;;;;;;;;;5050677;28;20214;-65
2021/11/28 08:18:21;;;;;;;4.60;4.20;;;;;;;;;;5051103;28;20191;-66
2021/11/28 08:20:49;;;;;;;13.30;7.03;;;;;;;;;;5047180;28;20225;-65
2021/11/28 08:23:16;;;;;;;12.50;8.48;;;;;;;;;;5051504;28;20195;-65
2021/11/28 08:25:49;;;;;;;12.43;8.95;;;;;;;;;;5050747;28;20603;-65
2021/11/28 08:28:19;;;;;;;29.85;18.00;;;;;;;;;;5046661;28;20541;-64
2021/11/28 08:30:49;;;;;;;104.32;57.40;;;;;;;;;;5051338;28;20190;-65
2021/11/28 08:33:16;;;;;;;43.88;26.45;;;;;;;;;;5051347;28;20255;-66
2021/11/28 08:35:45;;;;;;;56.22;33.17;;;;;;;;;;5047169;28;20674;-66
2021/11/28 08:38:16;;;;;;;52.10;29.98;;;;;;;;;;5051371;28;20199;-65
2021/11/28 08:40:43;;;;;;;39.00;25.55;;;;;;;;;;5050824;28;20750;-65
2021/11/28 08:43:11;;;;;;;17.77;13.50;;;;;;;;;;5050902;28;20226;-65
2021/11/28 08:45:39;;;;;;;18.67;15.07;;;;;;;;;;5051327;28;20194;-66
2021/11/28 08:48:10;;;;;;;13.38;10.40;;;;;;;;;;5050147;28;20189;-67
2021/11/28 08:50:40;;;;;;;8.75;5.93;;;;;;;;;;5050222;28;20182;-66
2021/11/28 08:53:09;;;;;;;9.93;7.07;;;;;;;;;;5047608;28;20237;-67
2021/11/28 08:55:37;;;;;;;8.95;5.93;;;;;;;;;;5050883;28;20206;-65
2021/11/28 08:58:09;;;;;;;9.45;7.05;;;;;;;;;;5050330;28;20191;-67
2021/11/28 09:00:39;;;;;;;9.27;6.28;;;;;;;;;;5046881;28;20219;-66
2021/11/28 09:03:09;;;;;;;11.80;7.85;;;;;;;;;;5050757;28;20197;-65
2021/11/28 09:05:37;;;;;;;8.25;6.18;;;;;;;;;;5050044;28;20191;-66
2021/11/28 09:08:05;;;;;;;5.32;4.45;;;;;;;;;;5051086;28;20248;-65
2021/11/28 09:10:35;;;;;;;8.35;5.47;;;;;;;;;;5050477;28;20198;-65
2021/11/28 09:13:13;;;;;;;6.93;4.57;;;;;;;;;;5050668;28;20191;-65
2021/11/28 09:15:44;;;;;;;18.55;15.55;;;;;;;;;;5044949;28;20300;-66
2021/11/28 09:18:18;;;;;;;12.82;8.82;;;;;;;;;;5045561;28;20624;-65
2021/11/28 09:20:50;;;;;;;10.43;7.82;;;;;;;;;;5043434;28;20673;-65
2021/11/28 09:26:06;;;;;;;13.57;10.18;;;;;;;;;;5049791;28;20206;-66
2021/11/28 09:28:40;;;;;;;7.15;4.50;;;;;;;;;;5050748;28;20293;-66
2021/11/28 09:31:11;;;;;;;5.03;3.58;;;;;;;;;;5046519;28;20191;-66
2021/11/28 09:33:38;;;;;;;4.30;2.90;;;;;;;;;;5050535;28;20187;-66
2021/11/28 09:36:09;;;;;;;4.30;2.80;;;;;;;;;;5050506;28;20218;-66
2021/11/28 09:38:37;;;;;;;13.00;8.85;;;;;;;;;;5046447;28;20226;-66
2021/11/28 09:41:08;;;;;;;13.80;10.63;;;;;;;;;;5050419;28;20728;-67
2021/11/28 09:43:36;;;;;;;4.05;3.10;;;;;;;;;;5050057;28;20201;-67
2021/11/28 09:46:08;;;;;;;7.20;5.15;;;;;;;;;;5046057;28;20183;-68
2021/11/28 09:48:38;;;;;;;3.63;2.55;;;;;;;;;;5050589;28;20199;-66
2021/11/28 09:51:09;;;;;;;2.70;1.90;;;;;;;;;;5049868;28;20183;-67
2021/11/28 09:53:38;;;;;;;4.35;2.85;;;;;;;;;;5050253;28;20191;-66
2021/11/28 09:56:10;;;;;;;2.90;1.73;;;;;;;;;;5049092;28;20566;-66
2021/11/28 09:58:41;;;;;;;3.58;2.50;;;;;;;;;;5050382;28;20198;-66
2021/11/28 10:01:08;;;;;;;2.50;1.80;;;;;;;;;;5050524;28;20696;-66
2021/11/28 10:03:36;;;;;;;3.67;2.05;;;;;;;;;;5049860;28;20229;-67
2021/11/28 10:06:03;;;;;;;2.60;2.10;;;;;;;;;;5055617;28;20179;-65
2021/11/28 10:08:31;;;;;;;3.95;2.42;;;;;;;;;;5056167;28;20256;-66
2021/11/28 10:11:23;;;;;;;3.88;2.70;;;;;;;;;;5055615;28;21591;-66
2021/11/28 10:13:51;;;;;;;3.35;2.35;;;;;;;;;;5056810;28;20229;-65
2021/11/28 10:16:19;;;;;;;3.20;2.50;;;;;;;;;;5058558;28;20263;-66
2021/11/28 10:18:47;;;;;;;4.30;2.92;;;;;;;;;;5053130;28;20187;-67
2021/11/28 10:21:14;;;;;;;4.28;2.53;;;;;;;;;;5058505;28;20314;-65
2021/11/28 10:23:56;;;;;;;3.00;2.67;;;;;;;;;;5054694;28;20276;-66
2021/11/28 10:26:26;;;;;;;6.90;3.15;;;;;;;;;;5050572;28;20204;-66
2021/11/28 10:29:09;;;;;;;3.75;2.75;;;;;;;;;;5054218;28;20930;-65
2021/11/28 10:31:43;;;;;;;4.88;2.70;;;;;;;;;;5053699;28;20190;-66
2021/11/28 10:34:18;;;;;;;3.83;2.30;;;;;;;;;;5056754;28;20230;-65
2021/11/28 10:36:46;;;;;;;3.13;1.83;;;;;;;;;;5053143;28;20197;-65
2021/11/28 10:39:16;;;;;;;3.65;2.38;;;;;;;;;;5052913;28;20246;-66
2021/11/28 10:41:52;;;;;;;7.55;3.58;;;;;;;;;;5056156;28;20641;-65
2021/11/28 10:44:20;;;;;;;6.18;4.10;;;;;;;;;;5049165;28;20281;-65
2021/11/28 10:46:51;;;;;;;3.90;2.90;;;;;;;;;;5053738;28;20591;-65
2021/11/28 10:49:23;;;;;;;5.80;3.10;;;;;;;;;;5056718;28;20229;-66
2021/11/28 10:51:51;;;;;;;3.47;2.00;;;;;;;;;;5049648;28;20190;-65
2021/11/28 10:54:22;;;;;;;8.23;3.22;;;;;;;;;;5056208;28;20187;-64
2021/11/28 10:57:03;;;;;;;5.80;3.03;;;;;;;;;;5055038;28;20237;-65
2021/11/28 10:59:31;;;;;;;5.68;3.30;;;;;;;;;;5052664;28;20214;-65
2021/11/28 11:01:58;;;;;;;3.45;2.30;;;;;;;;;;5053623;28;20670;-65
2021/11/28 11:04:28;;;;;;;6.90;2.92;;;;;;;;;;5054400;28;20744;-64
2021/11/28 11:07:13;;;;;;;5.15;1.80;;;;;;;;;;5052683;28;20241;-64
2021/11/28 11:09:44;;;;;;;3.15;1.95;;;;;;;;;;5055533;28;20257;-64
2021/11/28 11:12:20;;;;;;;7.40;2.60;;;;;;;;;;5055109;28;20186;-64
2021/11/28 11:14:47;;;;;;;10.57;5.18;;;;;;;;;;5050241;28;20215;-64
2021/11/28 11:17:14;;;;;;;6.10;3.95;;;;;;;;;;5050895;28;20248;-65
2021/11/28 11:19:45;;;;;;;4.95;3.00;;;;;;;;;;5054441;28;20191;-66
2021/11/28 11:22:15;;;;;;;4.95;3.42;;;;;;;;;;5054943;28;20206;-65
2021/11/28 11:24:45;;;;;;;11.20;2.75;;;;;;;;;;5053786;28;20278;-65
2021/11/28 11:27:15;;;;;;;3.22;1.77;;;;;;;;;;5050625;28;20657;-64
2021/11/28 11:29:48;;;;;;;2.72;1.40;;;;;;;;;;5054707;28;20595;-65
2021/11/28 11:32:22;;;;;;;4.60;2.58;;;;;;;;;;5052719;28;20218;-64
2021/11/28 11:34:50;;;;;;;3.03;1.80;;;;;;;;;;5055141;28;20222;-65
2021/11/28 11:37:18;;;;;;;3.55;1.40;;;;;;;;;;5052162;28;20213;-64
2021/11/28 11:39:46;;;;;;;2.25;1.23;;;;;;;;;;5053510;28;20186;-64
2021/11/28 11:42:15;;;;;;;3.58;1.20;;;;;;;;;;5053262;28;20305;-65
2021/11/28 11:44:45;;;;;;;2.63;1.40;;;;;;;;;;5055417;28;20319;-65
2021/11/28 11:47:12;;;;;;;2.40;1.10;;;;;;;;;;5051585;28;20222;-64
2021/11/28 11:49:41;;;;;;;2.60;1.80;;;;;;;;;;5053241;28;20190;-64
2021/11/28 11:52:09;;;;;;;3.55;2.00;;;;;;;;;;5051342;28;20548;-65
2021/11/28 11:54:42;;;;;;;3.03;1.30;;;;;;;;;;5051929;28;20195;-65
2021/11/28 11:57:11;;;;;;;2.67;1.83;;;;;;;;;;5053877;28;20171;-64
2021/11/28 11:59:49;;;;;;;2.95;2.15;;;;;;;;;;5051198;28;20188;-65
2021/11/28 12:02:30;;;;;;;2.20;1.50;;;;;;;;;;5052166;28;20218;-65
2021/11/28 12:05:01;;;;;;;3.70;1.55;;;;;;;;;;5047169;28;20198;-65
2021/11/28 12:07:47;;;;;;;2.90;2.10;;;;;;;;;;5049720;28;20191;-65
2021/11/28 12:10:27;;;;;;;2.30;1.60;;;;;;;;;;5050939;28;20584;-64
2021/11/28 12:12:55;;;;;;;1.85;1.20;;;;;;;;;;5046379;28;20193;-65
2021/11/28 12:15:25;;;;;;;2.13;1.05;;;;;;;;;;5053889;28;20234;-64
2021/11/28 12:17:58;;;;;;;2.40;1.77;;;;;;;;;;5050527;28;20210;-64
2021/11/28 12:20:53;;;;;;;2.05;1.25;;;;;;;;;;5046529;28;20193;-65
2021/11/28 12:23:36;;;;;;;3.15;1.70;;;;;;;;;;5021812;28;20621;-65
2021/11/28 12:26:04;;;;;;;3.28;1.70;;;;;;;;;;5044731;28;20194;-65
2021/11/28 12:28:33;;;;;;;3.33;2.00;;;;;;;;;;5050597;28;20195;-65
2021/11/28 12:31:01;;;;;;;3.63;1.85;;;;;;;;;;5053274;28;20276;-65
2021/11/28 12:33:47;;;;;;;2.90;1.60;;;;;;;;;;5050509;28;20191;-65
2021/11/28 12:36:38;;;;;;;4.47;1.70;;;;;;;;;;5050041;28;20179;-65
2021/11/28 12:39:10;;;;;;;2.95;1.80;;;;;;;;;;5048339;28;20206;-65
2021/11/28 12:41:55;;;;;;;2.85;1.88;;;;;;;;;;5050196;28;20220;-65
2021/11/28 12:44:27;;;;;;;2.58;1.77;;;;;;;;;;5050131;28;20182;-65
2021/11/28 12:46:56;;;;;;;4.18;1.70;;;;;;;;;;5041832;28;20204;-65
2021/11/28 12:49:26;;;;;;;3.67;2.20;;;;;;;;;;5050812;28;20198;-66
2021/11/28 12:51:57;;;;;;;4.57;2.80;;;;;;;;;;5049766;28;20199;-65
2021/11/28 12:54:28;;;;;;;3.97;2.97;;;;;;;;;;5045905;28;20235;-65
2021/11/28 12:57:14;;;;;;;4.47;3.35;;;;;;;;;;5050383;28;20183;-66
2021/11/28 13:00:03;;;;;;;5.72;3.03;;;;;;;;;;5047083;28;20190;-65
2021/11/28 13:02:41;;;;;;;3.30;2.50;;;;;;;;;;5046812;28;20214;-64
2021/11/28 13:05:33;;;;;;;3.35;2.25;;;;;;;;;;5050910;28;20289;-65
2021/11/28 13:08:15;;;;;;;5.03;3.10;;;;;;;;;;5050094;28;20502;-65
2021/11/28 13:10:44;;;;;;;3.70;2.45;;;;;;;;;;5048335;28;20332;-65
2021/11/28 13:13:12;;;;;;;4.43;2.80;;;;;;;;;;5050682;28;20199;-65
2021/11/28 13:15:41;;;;;;;4.30;2.75;;;;;;;;;;5050112;28;20226;-65
2021/11/28 13:18:10;;;;;;;4.10;2.60;;;;;;;;;;5050853;28;20194;-65
2021/11/28 13:20:39;;;;;;;3.42;2.50;;;;;;;;;;5050664;28;20190;-64
2021/11/28 13:23:08;;;;;;;3.72;2.17;;;;;;;;;;5050280;28;20245;-65
2021/11/28 13:25:38;;;;;;;3.25;2.08;;;;;;;;;;5050391;28;20244;-65
2021/11/28 13:28:10;;;;;;;74.35;37.78;;;;;;;;;;5050656;28;20190;-65
2021/11/28 13:30:39;;;;;;;10.20;5.30;;;;;;;;;;5050546;28;20191;-65
2021/11/28 13:33:07;;;;;;;3.38;2.33;;;;;;;;;;5050569;28;20199;-64
2021/11/28 13:35:37;;;;;;;2.90;2.13;;;;;;;;;;5050745;28;20241;-65
2021/11/28 13:38:14;;;;;;;2.85;2.20;;;;;;;;;;5050114;28;20202;-65
2021/11/28 13:40:41;;;;;;;7.85;3.42;;;;;;;;;;5052960;28;20607;-64
2021/11/28 13:43:31;;;;;;;5.85;2.30;;;;;;;;;;5053883;28;20693;-65
2021/11/28 13:45:58;;;;;;;4.43;2.88;;;;;;;;;;5052814;28;20578;-64
2021/11/28 13:48:38;;;;;;;3.75;2.50;;;;;;;;;;5054193;28;20244;-65
2021/11/28 13:51:06;;;;;;;3.35;2.63;;;;;;;;;;5055480;28;20519;-68
2021/11/28 13:53:34;;;;;;;3.28;2.35;;;;;;;;;;5052738;28;20182;-66
2021/11/28 13:56:01;;;;;;;9.20;5.22;;;;;;;;;;5052644;28;20225;-64
2021/11/28 13:58:30;;;;;;;6.07;3.97;;;;;;;;;;5054052;28;20280;-65
2021/11/28 14:01:05;;;;;;;3.75;2.55;;;;;;;;;;5057865;28;20187;-65
2021/11/28 14:03:41;;;;;;;5.05;3.20;;;4.60;80.10;;;;;;5052669;28;20298;-64
2021/11/28 14:06:11;;;;;;;4.32;2.40;;;;;;;;;;5053430;28;20282;-64
2021/11/28 14:08:43;;;;;;;4.07;3.22;;;;;;;;;;5055601;28;20188;-64
2021/11/28 14:11:12;;;;;;;4.60;3.25;;;;;;;;;;5052223;28;20202;-66
2021/11/28 14:13:47;;;;;;;6.38;3.08;;;;;;;;;;5052341;28;20214;-65
2021/11/28 14:16:27;;;;;;;3.17;2.63;;;;;;;;;;5055663;28;20226;-64
2021/11/28 14:18:59;;;;;;;6.18;3.33;;;;;;;;;;5054968;28;20555;-64
2021/11/28 14:21:32;;;;;;;3.65;2.92;;;;;;;;;;5052355;28;20220;-65
2021/11/28 14:24:01;;;;;;;3.17;2.50;;;;;;;;;;5059307;28;20214;-64
2021/11/28 14:26:32;;;;;;;4.70;2.22;;;;;;;;;;5060237;28;20281;-64
2021/11/28 14:29:02;;;;;;;2.80;2.00;;;;;;;;;;5054199;28;20273;-64
2021/11/28 14:31:30;;;;;;;2.88;1.85;;;;;;;;;;5053938;28;20289;-64
2021/11/28 14:33:57;;;;;;;4.57;2.70;;;;;;;;;;5053060;28;20634;-64
2021/11/28 14:36:27;;;;;;;4.07;2.25;;;;;;;;;;5054678;28;20223;-65
2021/11/28 14:38:55;;;;;;;9.05;3.17;;;;;;;;;;5053407;28;20226;-65
2021/11/28 14:41:26;;;;;;;8.73;4.07;;;;;;;;;;5054755;28;20264;-66
2021/11/28 14:43:57;;;;;;;6.15;3.25;;;;;;;;;;5050118;28;20220;-65
2021/11/28 14:46:27;;;;;;;8.20;4.50;;;;;;;;;;5056318;28;20592;-65
2021/11/28 14:48:56;;;;;;;8.55;4.00;;;;;;;;;;5052435;28;20195;-65
2021/11/28 14:51:33;;;;;;;3.15;2.40;;;;;;;;;;5052729;28;20218;-65
2021/11/28 14:54:15;;;;;;;5.60;2.72;;;;;;;;;;5050475;28;20292;-65
2021/11/28 14:56:46;;;;;;;4.18;2.15;;;;;;;;;;5050237;28;20542;-64
2021/11/28 14:59:26;;;;;;;3.60;2.30;;;;;;;;;;5052302;28;20249;-66
2021/11/28 15:02:04;;;;;;;2.83;1.95;;;;;;;;;;5050178;28;20292;-65
2021/11/28 15:04:33;;;;;;;3.83;2.25;;;;;;;;;;5052132;28;20195;-65